Huvudsida
METAR-TAF:

METAR-TAF

Flygplatser :

Bukarest, Rumänien

latitud: 44-33N, longitud: 026-06E, höjd: 95 m

Aktuellt väderrapport

Denna rapport gjordes för 39 minuter sedan, klockan 12:00 UTC
Vind 9 kt från ost
Temperatur 21°C
Fuktighet 49%
Tryck 1023 hPa
Sikt 10 km eller mer
Inga moln under 1 500 m eller inga cumulonimbus

METAR: LROP 251200Z 10009KT CAVOK 21/10 Q1023 NOSIG

Tid: 15:39 (12:39 UTC)

Väderprognos

Denna rapport gjordes för 1 timme och 39 minuter sedan, klockan 11:00 UTC
Prognos gäller från 25 kl. 12 UTC till 26 kl. 12 UTC
Vind 7 kt från ost/nordost
Sikt 10 km eller mer
Inga moln under 1 500 m eller inga cumulonimbus

TAF: LROP 251100Z 2512/2612 07007KT CAVOK

Aktuella väderrapporter och prognoser från 4000 flygplatser (METAR- och TAF-rapporter).

De tillgängliga stationerna syns som gula och röda prickar på kartan.

För musen över prickarna för att se namnen på stationerna.

Klicka sedan för att få väderrapporter och prognoser.

För att ändra kartan: Klicka på de gröna knapparna med ett svart kors på för att zooma in; den gröna knappen med ett streck på för att zooma ut; eller på de gröna pilarna för angränsande kartor.


METAR-TAF: